To NAV CANADA Home Page Login to a new session Search on AWWS site Feedback and Comments Disclaimer Vers la page française équivalente Tips FAQ What's new on the site To the Forecasts and Observations / NOTAM section To "File a Flight Plan" website Publications and other links Update of the User's profile FIC Telephone Numbers My Weather Data Folder Route Weather Data Regional Weather Data Local Weather Data To the Forecasts and Observations / NOTAM section
Request Generated 05/30/2015 at 06:03:46 UTC . Weather information available at that time is displayed.

METAR/TAF

HAMILTON/ON    

METAR CYHM 300500Z 19009KT 15SM 20/18 A3001 RMK SLP158 DENSITY ALT
1400FT=
SPECI CYHM 300440Z 18009KT 15SM -RA SCT040 OVC150 20/18 A3002 RMK
SC3AC5 PRESFR SLP161 DENSITY ALT 1400FT=
SPECI CYHM 300428Z 21008KT 8SM RA OVC035 20/18 A3003 RMK SC8 SLP166
DENSITY ALT 1400FT=
METAR CYHM 300400Z 18007KT 15SM FEW060 SCT130 20/17 A3003 RMK SC1AC3
SLP167 DENSITY ALT 1300FT=
METAR CYHM 300300Z 21003KT 15SM FEW050 FEW150 19/14 A3005 RMK SC1AC1
SLP174 DENSITY ALT 1200FT=

TAF CYHM 300538Z 3006/3106 20008KT P6SM SCT040 BKN140
FM301400 22015G25KT P6SM BKN040 TEMPO 3017/3021 4SM SHRA OVC025
PROB30 3017/3021 VRB20G30KT 1SM +TSRA SCT012 OVC030CB
FM302100 25012KT P6SM -SHRA OVC050 TEMPO 3021/3024 11/2SM +SHRA
OVC025 PROB40 3021/3024 VRB15G30KT 1SM +TSRA SCT010 OVC020CB
FM310000 35012KT P6SM -SHRA FEW015 OVC050
FM310500 03015G25KT 6SM -RA BR BKN008 OVC015
RMK NXT FCST BY 301200Z=
Your time UTC time
Weather data provided by Environment Canada and NAV CANADA